createdAt,value
2019-03-18T00:00:19.441Z,5.53
2019-03-18T00:02:48.094Z,5.73
2019-03-18T00:05:16.835Z,5.13
2019-03-18T00:07:45.526Z,5.97
2019-03-18T00:10:14.188Z,5.00
2019-03-18T00:12:42.928Z,5.07
2019-03-18T00:15:11.593Z,5.77
2019-03-18T00:17:40.258Z,5.87
2019-03-18T00:20:10.237Z,5.73
2019-03-18T00:22:38.899Z,5.70
2019-03-18T00:25:10.528Z,4.90
2019-03-18T00:27:39.154Z,5.00
2019-03-18T00:30:13.006Z,4.90
2019-03-18T00:32:41.726Z,4.70
2019-03-18T00:35:10.631Z,4.57
2019-03-18T00:37:39.332Z,4.67
2019-03-18T00:40:13.449Z,4.73
2019-03-18T00:42:42.122Z,4.57
2019-03-18T00:45:15.335Z,4.37
2019-03-18T00:47:41.668Z,4.73
2019-03-18T00:50:12.638Z,5.07
2019-03-18T00:52:41.520Z,4.40
2019-03-18T00:55:10.243Z,4.97
2019-03-18T00:57:38.997Z,4.77
2019-03-18T01:00:19.051Z,4.53
2019-03-18T01:02:49.994Z,4.43
2019-03-18T01:05:18.822Z,4.40
2019-03-18T01:07:47.474Z,4.67
2019-03-18T01:10:17.997Z,4.67
2019-03-18T01:12:46.701Z,4.30
2019-03-18T01:15:27.569Z,4.60
2019-03-18T01:17:45.951Z,4.00
2019-03-18T01:20:15.111Z,4.27
2019-03-18T01:22:43.831Z,4.27
2019-03-18T01:25:12.688Z,4.73
2019-03-18T01:27:41.558Z,4.93
2019-03-18T01:30:16.079Z,4.33
2019-03-18T01:32:44.738Z,4.47
2019-03-18T01:35:13.498Z,3.80
2019-03-18T01:37:42.161Z,4.03
2019-03-18T01:40:14.514Z,4.60
2019-03-18T01:42:43.177Z,4.00
2019-03-18T01:45:12.172Z,3.93
2019-03-18T01:47:40.824Z,3.50
2019-03-18T01:50:11.870Z,4.30
2019-03-18T01:52:40.538Z,3.67
2019-03-18T01:55:09.195Z,3.80
2019-03-18T01:57:38.535Z,3.30
2019-03-18T02:00:12.729Z,3.20
2019-03-18T02:02:41.474Z,3.93
2019-03-18T02:05:10.952Z,2.80
2019-03-18T02:07:39.610Z,3.47
2019-03-18T02:10:16.768Z,3.63
2019-03-18T02:12:45.449Z,3.43
2019-03-18T02:15:15.118Z,3.67
2019-03-18T02:17:43.790Z,3.67
2019-03-18T02:20:14.555Z,3.63
2019-03-18T02:22:43.207Z,3.67
2019-03-18T02:25:12.279Z,3.50
2019-03-18T02:27:41.237Z,4.07
2019-03-18T02:30:12.554Z,3.90
2019-03-18T02:32:41.225Z,3.97
2019-03-18T02:35:09.867Z,4.20
2019-03-18T02:37:40.088Z,3.50
2019-03-18T02:40:10.261Z,4.10
2019-03-18T02:42:38.926Z,3.70
2019-03-18T02:45:11.521Z,4.53
2019-03-18T02:47:40.277Z,4.87
2019-03-18T02:50:09.836Z,4.40
2019-03-18T02:52:38.493Z,4.20
2019-03-18T02:55:08.161Z,5.00
2019-03-18T02:57:36.969Z,4.83
2019-03-18T03:00:11.302Z,5.10
2019-03-18T03:02:39.994Z,4.77
2019-03-18T03:05:10.380Z,4.50
2019-03-18T03:07:39.097Z,4.47
2019-03-18T03:10:12.079Z,6.03
2019-03-18T03:12:40.785Z,5.60
2019-03-18T03:15:11.820Z,5.20
2019-03-18T03:17:40.519Z,5.20
2019-03-18T03:20:10.786Z,5.80
2019-03-18T03:22:39.544Z,5.53
2019-03-18T03:25:09.390Z,5.33
2019-03-18T03:27:38.231Z,5.83
2019-03-18T03:30:11.954Z,5.03
2019-03-18T03:32:40.779Z,4.70
2019-03-18T03:35:09.654Z,4.70
2019-03-18T03:37:38.307Z,4.50
2019-03-18T03:40:09.074Z,4.23
2019-03-18T03:42:37.735Z,4.23
2019-03-18T03:45:08.811Z,3.83
2019-03-18T03:47:37.488Z,4.10
2019-03-18T03:50:08.649Z,4.33
2019-03-18T03:52:37.286Z,3.77
2019-03-18T03:55:08.555Z,4.23
2019-03-18T03:57:37.218Z,4.27
2019-03-18T04:00:11.409Z,4.47
2019-03-18T04:02:40.126Z,3.90
2019-03-18T04:05:09.304Z,4.10
2019-03-18T04:07:38.046Z,4.40
2019-03-18T04:10:09.411Z,4.00
2019-03-18T04:12:38.060Z,4.20
2019-03-18T04:15:09.566Z,4.23
2019-03-18T04:17:38.230Z,3.63
2019-03-18T04:20:10.008Z,4.50
2019-03-18T04:22:38.671Z,4.30
2019-03-18T04:25:08.539Z,4.37
2019-03-18T04:27:37.183Z,4.10
2019-03-18T04:30:08.771Z,4.20
2019-03-18T04:32:37.459Z,4.17
2019-03-18T04:35:06.793Z,4.50
2019-03-18T04:37:35.457Z,3.77
2019-03-18T04:40:04.414Z,3.70
2019-03-18T04:42:33.148Z,4.13
2019-03-18T04:45:01.814Z,4.10
2019-03-18T04:47:30.463Z,4.77
2019-03-18T04:49:59.123Z,4.10
2019-03-18T04:52:27.891Z,5.13
2019-03-18T04:54:56.554Z,4.57
2019-03-18T04:57:25.221Z,4.80
2019-03-18T04:59:53.930Z,4.00
2019-03-18T05:02:22.575Z,4.70
2019-03-18T05:04:51.235Z,4.20
2019-03-18T05:07:19.996Z,4.20
2019-03-18T05:09:48.661Z,3.93
2019-03-18T05:12:17.400Z,5.03
2019-03-18T05:14:46.059Z,4.37
2019-03-18T05:17:26.179Z,4.57
2019-03-18T05:19:45.115Z,4.30
2019-03-18T05:22:13.782Z,4.00
2019-03-18T05:24:42.451Z,3.27
2019-03-18T05:27:11.114Z,3.80
2019-03-18T05:29:39.877Z,3.67
2019-03-18T05:32:08.539Z,3.60
2019-03-18T05:34:37.195Z,4.10
2019-03-18T05:37:05.875Z,4.00
2019-03-18T05:39:34.536Z,3.23
2019-03-18T05:42:03.282Z,3.80
2019-03-18T05:44:32.127Z,3.47
2019-03-18T05:47:00.898Z,3.37
2019-03-18T05:49:29.561Z,3.90
2019-03-18T05:51:58.229Z,3.80
2019-03-18T05:54:26.889Z,4.00
2019-03-18T05:56:55.561Z,4.13
2019-03-18T05:59:24.228Z,4.10
2019-03-18T06:01:52.981Z,4.17
2019-03-18T06:04:21.721Z,4.00
2019-03-18T06:06:50.394Z,4.37
2019-03-18T06:09:19.050Z,3.80
2019-03-18T06:11:47.771Z,4.23
2019-03-18T06:14:16.462Z,4.47
2019-03-18T06:16:45.152Z,4.10
2019-03-18T06:19:13.835Z,5.20
2019-03-18T06:21:42.554Z,4.97
2019-03-18T06:26:42.513Z,4.37
2019-03-18T06:29:11.476Z,3.93
2019-03-18T06:31:40.216Z,5.37
2019-03-18T06:34:08.960Z,4.70
2019-03-18T06:36:37.624Z,5.53
2019-03-18T06:39:07.095Z,5.00
2019-03-18T06:41:36.047Z,4.47
2019-03-18T06:44:04.754Z,5.13
2019-03-18T06:46:33.397Z,5.63
2019-03-18T06:49:02.132Z,5.23
2019-03-18T06:51:30.805Z,4.60
2019-03-18T06:53:59.746Z,4.53
2019-03-18T06:56:28.529Z,4.70
2019-03-18T06:58:57.195Z,4.30
2019-03-18T07:01:25.954Z,3.77
2019-03-18T07:03:54.624Z,4.57
2019-03-18T07:06:23.323Z,5.03
2019-03-18T07:08:56.759Z,4.90
2019-03-18T07:11:25.545Z,4.57
2019-03-18T07:13:54.283Z,4.90
2019-03-18T07:16:22.958Z,8.43
2019-03-18T07:18:51.710Z,4.90
2019-03-18T07:21:20.419Z,5.07
2019-03-18T07:23:49.627Z,6.90
2019-03-18T07:26:18.276Z,7.60
2019-03-18T07:28:46.976Z,6.47
2019-03-18T07:31:15.641Z,5.70
2019-03-18T07:33:45.882Z,4.00
2019-03-18T07:36:14.552Z,5.23
2019-03-18T07:38:43.453Z,11.27
2019-03-18T07:41:12.162Z,7.72
2019-03-18T07:43:40.986Z,6.30
2019-03-18T07:46:09.891Z,9.78
2019-03-18T07:48:38.572Z,7.55
2019-03-18T07:51:07.474Z,7.33
2019-03-18T07:53:36.425Z,8.90
2019-03-18T07:56:05.266Z,7.40
2019-03-18T07:58:34.388Z,7.37
2019-03-18T08:01:03.549Z,6.72
2019-03-18T08:03:32.458Z,7.03
2019-03-18T08:06:01.329Z,7.53
2019-03-18T08:08:30.102Z,16.23
2019-03-18T08:10:59.086Z,17.70
2019-03-18T08:13:27.776Z,14.15
2019-03-18T08:15:56.499Z,12.85
2019-03-18T08:18:25.448Z,11.75
2019-03-18T08:20:54.207Z,9.85
2019-03-18T08:23:22.918Z,11.53
2019-03-18T08:25:51.921Z,10.98
2019-03-18T08:28:20.679Z,14.80
2019-03-18T08:30:49.634Z,13.35
2019-03-18T08:33:19.765Z,22.65
2019-03-18T08:35:48.454Z,16.05
2019-03-18T08:38:17.380Z,21.05
2019-03-18T08:40:46.634Z,12.65
2019-03-18T08:43:15.586Z,12.10
2019-03-18T08:45:46.304Z,11.30
2019-03-18T08:48:15.127Z,14.60
2019-03-18T08:50:44.176Z,11.55
2019-03-18T08:53:12.852Z,10.72
2019-03-18T08:55:41.834Z,11.63
2019-03-18T08:58:10.579Z,11.95
2019-03-18T09:00:39.293Z,11.55
2019-03-18T09:03:08.074Z,12.47
2019-03-18T09:05:36.794Z,11.10
2019-03-18T09:08:05.603Z,12.03
2019-03-18T09:10:34.467Z,12.28
2019-03-18T09:13:03.264Z,12.82
2019-03-18T09:15:32.002Z,12.03
2019-03-18T09:18:00.801Z,12.68
2019-03-18T09:20:29.546Z,13.48
2019-03-18T09:22:58.287Z,12.73
2019-03-18T09:25:26.979Z,14.95
2019-03-18T09:27:55.700Z,15.32
2019-03-18T09:30:24.431Z,13.40
2019-03-18T09:32:53.056Z,14.90
2019-03-18T09:35:21.795Z,13.78
2019-03-18T09:37:50.792Z,12.60
2019-03-18T09:40:19.471Z,11.83
2019-03-18T09:42:48.173Z,11.75
2019-03-18T09:45:17.961Z,12.30
2019-03-18T09:47:47.004Z,9.55
2019-03-18T09:50:16.791Z,10.08
2019-03-18T09:52:45.606Z,10.55
2019-03-18T09:55:14.336Z,10.08
2019-03-18T09:57:43.437Z,12.40
2019-03-18T10:00:20.842Z,9.50
2019-03-18T10:02:49.723Z,7.17
2019-03-18T10:05:18.437Z,7.05
2019-03-18T10:07:47.126Z,5.70
2019-03-18T10:10:16.309Z,6.97
2019-03-18T10:12:44.997Z,6.50
2019-03-18T10:15:17.966Z,7.08
2019-03-18T10:17:46.977Z,7.37
2019-03-18T10:20:15.766Z,8.20
2019-03-18T10:22:44.584Z,8.58
2019-03-18T10:25:13.349Z,7.10
2019-03-18T10:27:42.141Z,7.78
2019-03-18T10:30:12.946Z,6.60
2019-03-18T10:32:41.946Z,6.22
2019-03-18T10:35:11.222Z,5.70
2019-03-18T10:37:39.913Z,5.10
2019-03-18T10:40:10.999Z,5.72
2019-03-18T10:42:39.710Z,8.00
2019-03-18T10:45:11.137Z,6.20
2019-03-18T10:47:39.954Z,6.90
2019-03-18T10:50:14.085Z,6.37
2019-03-18T10:52:42.879Z,5.58
2019-03-18T10:55:11.613Z,4.53
2019-03-18T10:57:40.607Z,5.90
2019-03-18T11:00:15.227Z,4.92
2019-03-18T11:02:45.211Z,6.17
2019-03-18T11:05:15.136Z,6.70
2019-03-18T11:07:43.940Z,5.12
2019-03-18T11:10:16.712Z,7.37
2019-03-18T11:12:45.618Z,5.30
2019-03-18T11:15:22.118Z,6.47
2019-03-18T11:17:52.087Z,14.60
2019-03-18T11:20:21.343Z,4.60
2019-03-18T11:22:50.432Z,4.97
2019-03-18T11:25:19.263Z,5.30
2019-03-18T11:27:48.012Z,4.17
2019-03-18T11:30:18.632Z,4.72
2019-03-18T11:32:47.739Z,4.65
2019-03-18T11:35:16.387Z,4.00
2019-03-18T11:37:45.270Z,3.90
2019-03-18T11:40:19.172Z,4.15
2019-03-18T11:42:48.329Z,7.25
2019-03-18T11:45:18.453Z,4.03
2019-03-18T11:47:47.798Z,4.05
2019-03-18T11:50:19.987Z,6.15
2019-03-18T11:52:48.832Z,5.08
2019-03-18T11:55:19.335Z,5.40
2019-03-18T11:57:47.966Z,4.83
2019-03-18T12:00:23.704Z,3.80
2019-03-18T12:02:52.491Z,6.33
2019-03-18T12:05:22.121Z,4.17
2019-03-18T12:07:50.819Z,4.30
2019-03-18T12:10:20.826Z,4.05
2019-03-18T12:12:49.515Z,5.33
2019-03-18T12:15:21.733Z,5.47
2019-03-18T12:17:50.918Z,3.45
2019-03-18T12:20:24.732Z,2.95
2019-03-18T12:22:50.110Z,4.78
2019-03-18T12:25:18.861Z,3.30
2019-03-18T12:27:47.581Z,3.12
2019-03-18T12:30:21.053Z,3.62
2019-03-18T12:32:49.994Z,4.05
2019-03-18T12:35:18.731Z,5.40
2019-03-18T12:37:47.395Z,3.35
2019-03-18T12:40:17.067Z,4.47
2019-03-18T12:42:46.271Z,4.30
2019-03-18T12:45:19.134Z,3.62
2019-03-18T12:47:48.373Z,4.35
2019-03-18T12:50:36.296Z,4.28
2019-03-18T12:52:50.544Z,3.10
2019-03-18T12:55:19.632Z,3.27
2019-03-18T12:57:48.491Z,2.60
2019-03-18T13:00:36.772Z,2.80
2019-03-18T13:03:05.824Z,2.87
2019-03-18T13:05:34.586Z,2.37
2019-03-18T13:08:03.399Z,2.65
2019-03-18T13:10:32.083Z,3.00
2019-03-18T13:13:00.903Z,2.95
2019-03-18T13:15:29.586Z,2.58
2019-03-18T13:17:58.779Z,2.87
2019-03-18T13:20:29.954Z,3.65
2019-03-18T13:22:58.920Z,3.72
2019-03-18T13:25:27.789Z,3.83
2019-03-18T13:27:56.703Z,2.83
2019-03-18T13:30:25.784Z,3.15
2019-03-18T13:32:54.596Z,2.70
2019-03-18T13:35:23.471Z,3.05
2019-03-18T13:37:55.025Z,3.35
2019-03-18T13:40:23.770Z,3.50
2019-03-18T13:42:52.641Z,3.25
2019-03-18T13:45:24.963Z,2.65
2019-03-18T13:47:53.983Z,4.17
2019-03-18T13:50:23.355Z,2.90
2019-03-18T13:52:52.222Z,2.20
2019-03-18T13:55:20.959Z,8.63
2019-03-18T13:57:49.724Z,1.60
2019-03-18T14:00:20.090Z,1.67
2019-03-18T14:02:48.880Z,1.60
2019-03-18T14:05:17.537Z,1.20
2019-03-18T14:07:58.871Z,1.35
2019-03-18T14:10:23.509Z,2.65
2019-03-18T14:12:52.286Z,3.90
2019-03-18T14:15:26.232Z,3.42
2019-03-18T14:18:00.725Z,3.08
2019-03-18T14:20:29.847Z,3.12
2019-03-18T14:22:58.600Z,3.33
2019-03-18T14:25:27.381Z,4.50
2019-03-18T14:27:56.056Z,2.58
2019-03-18T14:30:25.058Z,2.50
2019-03-18T14:32:53.833Z,2.80
2019-03-18T14:35:22.881Z,2.72
2019-03-18T14:37:51.580Z,3.33
2019-03-18T14:40:26.477Z,3.58
2019-03-18T14:42:55.201Z,5.00
2019-03-18T14:45:27.370Z,4.05
2019-03-18T14:47:56.296Z,2.67
2019-03-18T14:50:25.120Z,4.28
2019-03-18T14:52:53.825Z,6.30
2019-03-18T14:55:22.541Z,7.50
2019-03-18T14:57:51.254Z,7.53
2019-03-18T15:00:27.914Z,6.22
2019-03-18T15:02:56.706Z,4.80
2019-03-18T15:05:25.457Z,6.22
2019-03-18T15:07:54.145Z,6.83
2019-03-18T15:10:24.751Z,7.53
2019-03-18T15:13:00.801Z,8.43
2019-03-18T15:15:43.934Z,6.37
2019-03-18T15:18:13.021Z,4.67
2019-03-18T15:20:41.680Z,4.23
2019-03-18T15:23:10.530Z,4.60
2019-03-18T15:25:39.219Z,5.30
2019-03-18T15:28:07.953Z,5.80
2019-03-18T15:30:36.634Z,6.47
2019-03-18T15:33:05.526Z,5.50
2019-03-18T15:35:34.214Z,5.93
2019-03-18T15:38:02.874Z,5.23
2019-03-18T15:40:31.564Z,4.87
2019-03-18T15:43:00.383Z,4.20
2019-03-18T15:45:29.152Z,3.80
2019-03-18T15:47:57.912Z,3.37
2019-03-18T15:50:27.432Z,3.63
2019-03-18T15:52:56.092Z,4.00
2019-03-18T15:55:25.062Z,3.30
2019-03-18T15:57:53.703Z,4.17
2019-03-18T16:00:26.539Z,4.87
2019-03-18T16:02:55.348Z,5.30
2019-03-18T16:05:24.255Z,5.60
2019-03-18T16:07:53.005Z,6.60
2019-03-18T16:10:21.774Z,9.60
2019-03-18T16:12:50.446Z,6.07
2019-03-18T16:15:19.610Z,6.47
2019-03-18T16:17:48.299Z,4.80
2019-03-18T16:20:22.477Z,4.33
2019-03-18T16:22:51.156Z,3.97
2019-03-18T16:25:19.890Z,4.03
2019-03-18T16:27:48.654Z,5.83
2019-03-18T16:30:21.230Z,5.20
2019-03-18T16:32:49.903Z,4.37
2019-03-18T16:35:18.687Z,3.57
2019-03-18T16:37:57.246Z,3.67
2019-03-18T16:40:32.443Z,3.60
2019-03-18T16:43:05.879Z,3.23
2019-03-18T16:45:34.561Z,3.30
2019-03-18T16:48:03.226Z,3.43
2019-03-18T16:50:32.296Z,3.40
2019-03-18T16:53:01.173Z,3.60
2019-03-18T16:55:29.860Z,4.00
2019-03-18T16:57:58.533Z,4.77
2019-03-18T17:00:28.131Z,4.17
2019-03-18T17:02:56.794Z,3.67
2019-03-18T17:05:25.461Z,4.40
2019-03-18T17:07:54.664Z,4.20
2019-03-18T17:10:23.421Z,4.03
2019-03-18T17:12:52.130Z,3.80
2019-03-18T17:15:21.421Z,3.40
2019-03-18T17:17:50.082Z,3.00
2019-03-18T17:20:18.808Z,3.20
2019-03-18T17:22:49.943Z,3.53
2019-03-18T17:25:22.678Z,3.43
2019-03-18T17:27:51.338Z,2.70
2019-03-18T17:30:20.604Z,3.10
2019-03-18T17:32:49.513Z,2.73
2019-03-18T17:35:18.139Z,2.40
2019-03-18T17:37:46.865Z,2.10
2019-03-18T17:40:18.451Z,2.57
2019-03-18T17:42:47.165Z,2.33
2019-03-18T17:45:19.256Z,4.00
2019-03-18T17:47:48.031Z,2.40
2019-03-18T17:50:25.542Z,3.73
2019-03-18T17:53:02.209Z,3.93
2019-03-18T17:55:24.603Z,4.03
2019-03-18T17:57:53.302Z,3.03
2019-03-18T18:00:26.253Z,6.00
2019-03-18T18:02:54.990Z,5.67
2019-03-18T18:05:23.653Z,5.70
2019-03-18T18:07:52.337Z,5.43
2019-03-18T18:10:21.012Z,9.90
2019-03-18T18:12:49.687Z,6.60
2019-03-18T18:15:18.502Z,4.50
2019-03-18T18:17:47.175Z,6.60
2019-03-18T18:20:16.245Z,4.80
2019-03-18T18:22:45.214Z,4.63
2019-03-18T18:25:14.588Z,4.73
2019-03-18T18:27:43.275Z,4.77
2019-03-18T18:30:19.625Z,6.10
2019-03-18T18:32:48.496Z,6.13
2019-03-18T18:35:17.368Z,5.50
2019-03-18T18:37:46.075Z,4.30
2019-03-18T18:40:19.610Z,4.37
2019-03-18T18:42:48.253Z,4.87
2019-03-18T18:45:16.923Z,4.00
2019-03-18T18:47:45.597Z,4.60
2019-03-18T18:50:14.565Z,4.30
2019-03-18T18:52:43.234Z,5.30
2019-03-18T18:55:13.097Z,4.77
2019-03-18T18:57:41.766Z,4.77
2019-03-18T19:00:16.174Z,4.23
2019-03-18T19:02:44.850Z,4.27
2019-03-18T19:05:14.613Z,3.27
2019-03-18T19:07:43.586Z,4.27
2019-03-18T19:10:14.695Z,4.57
2019-03-18T19:12:43.360Z,4.63
2019-03-18T19:15:29.020Z,5.03
2019-03-18T19:17:57.671Z,5.03
2019-03-18T19:20:26.366Z,6.60
2019-03-18T19:22:55.330Z,7.63
2019-03-18T19:25:24.367Z,7.80
2019-03-18T19:27:53.034Z,7.73
2019-03-18T19:30:22.705Z,7.17
2019-03-18T19:32:51.368Z,6.60
2019-03-18T19:35:20.052Z,6.63
2019-03-18T19:37:48.723Z,7.30
2019-03-18T19:40:21.472Z,6.77
2019-03-18T19:42:50.168Z,6.80
2019-03-18T19:45:18.912Z,6.67
2019-03-18T19:47:47.580Z,5.97
2019-03-18T19:50:27.163Z,6.80
2019-03-18T19:52:55.934Z,7.10
2019-03-18T19:55:24.607Z,7.50
2019-03-18T19:57:53.279Z,7.20
2019-03-18T20:00:24.019Z,6.70
2019-03-18T20:02:52.785Z,7.00
2019-03-18T20:05:21.493Z,6.90
2019-03-18T20:07:50.159Z,7.83
2019-03-18T20:10:20.053Z,7.73
2019-03-18T20:12:49.032Z,7.90
2019-03-18T20:15:20.963Z,6.70
2019-03-18T20:17:49.748Z,6.53
2019-03-18T20:20:21.050Z,6.80
2019-03-18T20:22:50.106Z,7.23
2019-03-18T20:25:18.802Z,7.63
2019-03-18T20:27:47.467Z,8.17
2019-03-18T20:30:22.789Z,8.23
2019-03-18T20:32:51.452Z,8.43
2019-03-18T20:35:24.059Z,9.07
2019-03-18T20:37:52.734Z,8.13
2019-03-18T20:40:21.718Z,8.50
2019-03-18T20:42:50.518Z,8.33
2019-03-18T20:45:20.451Z,9.07
2019-03-18T20:47:49.114Z,7.80
2019-03-18T20:50:18.995Z,7.20
2019-03-18T20:52:47.666Z,6.40
2019-03-18T20:55:16.641Z,7.20
2019-03-18T20:57:45.327Z,7.30
2019-03-18T21:00:20.787Z,7.07
2019-03-18T21:02:49.562Z,7.20
2019-03-18T21:05:18.252Z,7.63
2019-03-18T21:07:47.042Z,7.90
2019-03-18T21:10:20.207Z,7.43
2019-03-18T21:12:48.877Z,7.23
2019-03-18T21:15:18.140Z,7.90
2019-03-18T21:17:47.114Z,8.73
2019-03-18T21:20:18.144Z,8.27
2019-03-18T21:22:46.911Z,8.00
2019-03-18T21:25:15.697Z,8.33
2019-03-18T21:27:44.366Z,9.07
2019-03-18T21:30:15.963Z,9.00
2019-03-18T21:32:44.623Z,9.03
2019-03-18T21:35:13.407Z,9.57
2019-03-18T21:37:42.098Z,9.17
2019-03-18T21:40:13.707Z,9.07
2019-03-18T21:42:42.390Z,9.47
2019-03-18T21:45:16.250Z,9.40
2019-03-18T21:47:45.021Z,9.17
2019-03-18T21:50:15.513Z,8.60
2019-03-18T21:52:44.224Z,9.10
2019-03-18T21:55:14.498Z,9.53
2019-03-18T21:57:43.473Z,8.90
2019-03-18T22:00:20.241Z,8.00
2019-03-18T22:02:48.906Z,7.80
2019-03-18T22:05:17.691Z,8.33
2019-03-18T22:07:46.369Z,7.63
2019-03-18T22:10:18.880Z,7.23
2019-03-18T22:12:47.663Z,6.60
2019-03-18T22:15:17.140Z,6.57
2019-03-18T22:17:45.813Z,7.23
2019-03-18T22:20:16.027Z,6.73
2019-03-18T22:22:44.694Z,7.37
2019-03-18T22:25:14.274Z,6.70
2019-03-18T22:27:42.944Z,5.63
2019-03-18T22:30:13.925Z,6.17
2019-03-18T22:32:42.573Z,5.57
2019-03-18T22:35:11.447Z,5.63
2019-03-18T22:37:40.130Z,6.33
2019-03-18T22:40:14.340Z,5.67
2019-03-18T22:42:42.995Z,6.03
2019-03-18T22:45:13.665Z,6.07
2019-03-18T22:47:42.344Z,6.43
2019-03-18T22:50:12.822Z,6.10
2019-03-18T22:52:41.676Z,5.97
2019-03-18T22:55:12.408Z,6.10
2019-03-18T22:57:41.072Z,5.83
2019-03-18T23:00:25.884Z,5.80
2019-03-18T23:02:54.653Z,5.43
2019-03-18T23:05:23.414Z,4.63
2019-03-18T23:07:52.087Z,5.00
2019-03-18T23:10:20.749Z,4.37
2019-03-18T23:12:49.440Z,4.13
2019-03-18T23:15:18.205Z,4.53
2019-03-18T23:17:46.912Z,4.27
2019-03-18T23:20:15.574Z,4.30
2019-03-18T23:22:44.243Z,4.53
2019-03-18T23:25:12.899Z,4.47
2019-03-18T23:27:41.573Z,4.30
2019-03-18T23:30:13.054Z,4.60
2019-03-18T23:32:41.748Z,4.27
2019-03-18T23:35:10.607Z,5.03
2019-03-18T23:37:39.435Z,4.93
2019-03-18T23:40:14.905Z,4.60
2019-03-18T23:42:45.030Z,4.43
2019-03-18T23:45:14.176Z,4.77
2019-03-18T23:47:42.841Z,4.70
2019-03-18T23:50:15.818Z,4.83
2019-03-18T23:52:44.485Z,4.73
2019-03-18T23:55:19.602Z,4.77
2019-03-18T23:57:43.673Z,5.43
